createdAt,value
2022-11-03T00:02:01.245Z,2.05
2022-11-03T00:04:31.472Z,2.20
2022-11-03T00:07:01.918Z,1.77
2022-11-03T00:09:33.959Z,2.28
2022-11-03T00:12:04.491Z,2.55
2022-11-03T00:14:36.051Z,3.03
2022-11-03T00:17:06.390Z,1.75
2022-11-03T00:19:36.375Z,2.20
2022-11-03T00:22:06.679Z,1.75
2022-11-03T00:24:36.763Z,1.98
2022-11-03T00:27:07.015Z,1.77
2022-11-03T00:29:38.800Z,2.42
2022-11-03T00:32:09.281Z,1.92
2022-11-03T00:34:40.807Z,2.40
2022-11-03T00:37:11.239Z,2.38
2022-11-03T00:39:41.275Z,2.33
2022-11-03T00:42:11.531Z,2.08
2022-11-03T00:44:42.861Z,2.35
2022-11-03T00:47:13.229Z,2.20
2022-11-03T00:49:45.861Z,3.30
2022-11-03T00:52:16.176Z,3.47
2022-11-03T00:54:48.842Z,1.95
2022-11-03T00:57:20.589Z,2.88
2022-11-03T00:59:51.973Z,2.20
2022-11-03T01:02:22.297Z,2.35
2022-11-03T01:05:10.380Z,2.30
2022-11-03T01:07:40.719Z,2.33
2022-11-03T01:10:12.050Z,2.38
2022-11-03T01:12:43.609Z,1.85
2022-11-03T01:15:15.322Z,2.53
2022-11-03T01:17:45.693Z,2.03
2022-11-03T01:20:15.752Z,2.08
2022-11-03T01:22:46.199Z,2.13
2022-11-03T01:25:17.718Z,2.67
2022-11-03T01:27:48.068Z,2.67
2022-11-03T01:30:19.649Z,2.40
2022-11-03T01:32:50.092Z,2.05
2022-11-03T01:35:20.053Z,2.33
2022-11-03T01:37:50.599Z,3.10
2022-11-03T01:40:21.497Z,3.20
2022-11-03T01:42:52.189Z,2.38
2022-11-03T01:45:24.382Z,2.35
2022-11-03T01:47:54.942Z,2.78
2022-11-03T01:50:25.619Z,2.47
2022-11-03T01:53:00.291Z,2.10
2022-11-03T01:55:36.059Z,2.00
2022-11-03T01:58:11.361Z,2.55
2022-11-03T02:00:45.898Z,2.45
2022-11-03T02:03:18.571Z,2.22
2022-11-03T02:05:50.386Z,3.47
2022-11-03T02:08:25.390Z,2.78
2022-11-03T02:10:55.521Z,2.47
2022-11-03T02:13:27.901Z,2.97
2022-11-03T02:16:01.233Z,2.50
2022-11-03T02:18:34.639Z,3.35
2022-11-03T02:21:13.853Z,3.60
2022-11-03T02:23:50.571Z,3.40
2022-11-03T02:26:22.272Z,3.00
2022-11-03T02:31:32.010Z,2.33
2022-11-03T02:34:08.882Z,2.38
2022-11-03T02:36:43.488Z,2.15
2022-11-03T02:39:20.151Z,2.00
2022-11-03T02:41:54.419Z,2.05
2022-11-03T02:44:27.391Z,1.92
2022-11-03T02:47:00.909Z,2.38
2022-11-03T02:49:31.583Z,2.80
2022-11-03T02:52:02.950Z,1.95
2022-11-03T02:54:38.851Z,2.80
2022-11-03T02:57:16.019Z,2.05
2022-11-03T02:59:51.891Z,2.67
2022-11-03T03:02:32.796Z,1.80
2022-11-03T03:05:08.131Z,2.13
2022-11-03T03:07:42.131Z,2.25
2022-11-03T03:10:16.313Z,2.65
2022-11-03T03:12:50.791Z,3.00
2022-11-03T03:15:25.519Z,2.72
2022-11-03T03:18:03.792Z,2.72
2022-11-03T03:20:39.497Z,3.22
2022-11-03T03:23:18.347Z,3.38
2022-11-03T03:25:53.850Z,2.33
2022-11-03T03:28:28.080Z,2.50
2022-11-03T03:31:03.501Z,2.95
2022-11-03T03:33:36.149Z,4.80
2022-11-03T03:36:11.062Z,3.08
2022-11-03T03:38:46.537Z,2.85
2022-11-03T03:41:22.362Z,3.15
2022-11-03T03:43:57.230Z,3.70
2022-11-03T03:46:34.252Z,4.13
2022-11-03T03:49:04.741Z,2.97
2022-11-03T03:51:36.580Z,3.27
2022-11-03T03:54:06.713Z,3.05
2022-11-03T03:56:43.981Z,2.25
2022-11-03T03:59:15.772Z,3.10
2022-11-03T04:01:47.718Z,3.67
2022-11-03T04:04:18.052Z,3.58
2022-11-03T04:06:48.460Z,4.00
2022-11-03T04:09:18.461Z,4.80
2022-11-03T04:12:05.921Z,3.97
2022-11-03T04:14:54.514Z,4.32
2022-11-03T04:17:42.701Z,3.22
2022-11-03T04:20:33.608Z,2.95
2022-11-03T04:23:04.040Z,2.72
2022-11-03T04:25:34.191Z,3.70
2022-11-03T04:28:07.683Z,3.47
2022-11-03T04:30:39.519Z,2.75
2022-11-03T04:33:16.551Z,4.35
2022-11-03T04:35:46.971Z,3.83
2022-11-03T04:38:25.339Z,2.60
2022-11-03T04:40:57.422Z,4.00
2022-11-03T04:43:34.915Z,2.83
2022-11-03T04:46:06.969Z,3.28
2022-11-03T04:48:38.072Z,5.13
2022-11-03T04:51:16.438Z,3.42
2022-11-03T04:53:54.811Z,3.30
2022-11-03T04:56:26.949Z,3.15
2022-11-03T04:58:59.631Z,3.92
2022-11-03T05:01:31.761Z,4.15
2022-11-03T05:04:02.306Z,4.13
2022-11-03T05:06:32.712Z,2.88
2022-11-03T05:09:09.381Z,3.53
2022-11-03T05:11:41.530Z,3.15
2022-11-03T05:14:18.991Z,4.63
2022-11-03T05:16:53.979Z,3.40
2022-11-03T05:19:29.032Z,4.88
2022-11-03T05:22:01.954Z,4.45
2022-11-03T05:24:34.342Z,4.45
2022-11-03T05:27:04.612Z,4.25
2022-11-03T05:29:38.500Z,3.42
2022-11-03T05:32:16.562Z,3.25
2022-11-03T05:34:51.519Z,3.85
2022-11-03T05:37:30.660Z,4.38
2022-11-03T05:40:02.880Z,2.83
2022-11-03T05:42:36.536Z,3.97
2022-11-03T05:45:16.753Z,2.92
2022-11-03T05:47:49.311Z,3.22
2022-11-03T05:50:25.529Z,2.70
2022-11-03T05:53:14.359Z,3.22
2022-11-03T05:55:45.860Z,2.90
2022-11-03T05:58:24.028Z,3.95
2022-11-03T06:00:58.012Z,3.47
2022-11-03T06:03:31.677Z,3.08
2022-11-03T06:06:03.622Z,4.10
2022-11-03T06:08:40.182Z,4.53
2022-11-03T06:11:24.024Z,5.72
2022-11-03T06:13:54.781Z,6.45
2022-11-03T06:16:40.409Z,7.03
2022-11-03T06:19:28.635Z,8.50
2022-11-03T06:22:15.467Z,8.90
2022-11-03T06:24:45.907Z,7.43
2022-11-03T06:27:18.289Z,7.47
2022-11-03T06:29:52.489Z,7.30
2022-11-03T06:32:22.901Z,6.45
2022-11-03T06:34:56.850Z,6.68
2022-11-03T06:37:32.769Z,8.25
2022-11-03T06:40:24.671Z,8.68
2022-11-03T06:42:55.890Z,8.02
2022-11-03T06:45:28.283Z,7.50
2022-11-03T06:47:59.612Z,7.47
2022-11-03T06:50:33.915Z,7.18
2022-11-03T06:53:06.399Z,6.75
2022-11-03T06:55:39.696Z,6.05
2022-11-03T06:58:22.015Z,6.00
2022-11-03T07:00:52.448Z,6.87
2022-11-03T07:03:30.965Z,6.93
2022-11-03T07:06:13.327Z,9.35
2022-11-03T07:08:46.221Z,7.18
2022-11-03T07:11:20.616Z,6.70
2022-11-03T07:13:56.191Z,6.10
2022-11-03T07:16:34.097Z,5.72
2022-11-03T07:19:07.876Z,5.85
2022-11-03T07:21:43.667Z,5.55
2022-11-03T07:24:20.770Z,5.40
2022-11-03T07:26:55.754Z,5.72
2022-11-03T07:29:30.855Z,4.93
2022-11-03T07:32:01.913Z,6.57
2022-11-03T07:34:35.495Z,6.43
2022-11-03T07:37:07.173Z,5.47
2022-11-03T07:39:40.284Z,4.40
2022-11-03T07:42:17.346Z,4.68
2022-11-03T07:44:49.756Z,4.18
2022-11-03T07:47:26.058Z,5.00
2022-11-03T07:49:57.896Z,3.90
2022-11-03T07:52:29.966Z,4.38
2022-11-03T07:55:02.242Z,3.78
2022-11-03T07:57:33.186Z,3.72
2022-11-03T08:00:10.350Z,4.35
2022-11-03T08:02:49.419Z,4.40
2022-11-03T08:07:56.245Z,4.47
2022-11-03T08:10:26.774Z,4.50
2022-11-03T08:12:56.997Z,4.38
2022-11-03T08:15:27.505Z,4.10
2022-11-03T08:17:57.662Z,2.42
2022-11-03T08:20:28.215Z,3.33
2022-11-03T08:23:24.021Z,3.08
2022-11-03T08:25:50.948Z,3.00
2022-11-03T08:28:22.885Z,2.63
2022-11-03T08:30:53.507Z,2.33
2022-11-03T08:33:26.726Z,2.38
2022-11-03T08:35:57.626Z,1.75
2022-11-03T08:38:29.564Z,2.95
2022-11-03T08:41:00.446Z,2.50
2022-11-03T08:43:30.785Z,2.08
2022-11-03T08:46:08.140Z,1.85
2022-11-03T08:48:43.135Z,2.85
2022-11-03T08:51:14.387Z,2.67
2022-11-03T08:53:46.644Z,3.00
2022-11-03T08:56:20.479Z,2.95
2022-11-03T08:58:52.768Z,3.10
2022-11-03T09:01:23.401Z,2.15
2022-11-03T09:03:53.703Z,2.97
2022-11-03T09:06:24.525Z,3.03
2022-11-03T09:11:47.356Z,2.60
2022-11-03T09:14:17.622Z,2.35
2022-11-03T09:16:48.481Z,3.63
2022-11-03T09:19:19.507Z,3.30
2022-11-03T09:21:50.025Z,3.78
2022-11-03T09:24:21.558Z,3.05
2022-11-03T09:26:51.989Z,3.88
2022-11-03T09:29:22.307Z,4.18
2022-11-03T09:31:52.837Z,3.67
2022-11-03T09:34:22.937Z,2.13
2022-11-03T09:36:53.539Z,2.87
2022-11-03T09:39:25.093Z,2.17
2022-11-03T09:41:59.351Z,2.65
2022-11-03T09:44:29.776Z,2.47
2022-11-03T09:47:02.334Z,1.83
2022-11-03T09:49:35.242Z,2.25
2022-11-03T09:52:06.793Z,2.60
2022-11-03T09:54:38.184Z,1.83
2022-11-03T09:57:14.122Z,1.92
2022-11-03T09:59:47.035Z,2.65
2022-11-03T10:02:24.436Z,1.88
2022-11-03T10:04:57.876Z,1.67
2022-11-03T10:07:31.252Z,2.08
2022-11-03T10:10:03.794Z,1.63
2022-11-03T10:12:38.132Z,2.17
2022-11-03T10:15:15.674Z,1.50
2022-11-03T10:17:47.109Z,2.15
2022-11-03T10:20:19.716Z,2.30
2022-11-03T10:22:53.997Z,2.45
2022-11-03T10:25:39.249Z,2.55
2022-11-03T10:28:19.086Z,2.65
2022-11-03T10:31:11.375Z,1.80
2022-11-03T10:33:52.431Z,1.95
2022-11-03T10:36:27.553Z,2.08
2022-11-03T10:38:58.164Z,2.42
2022-11-03T10:41:31.026Z,2.67
2022-11-03T10:44:05.167Z,2.58
2022-11-03T10:46:51.647Z,3.03
2022-11-03T10:49:22.394Z,2.83
2022-11-03T10:51:53.913Z,2.67
2022-11-03T10:54:26.109Z,2.00
2022-11-03T10:56:57.819Z,2.08
2022-11-03T10:59:33.251Z,2.13
2022-11-03T11:02:04.135Z,2.38
2022-11-03T11:07:05.260Z,2.35
2022-11-03T11:09:36.646Z,2.72
2022-11-03T11:12:17.191Z,2.47
2022-11-03T11:15:01.437Z,1.70
2022-11-03T11:17:46.602Z,2.28
2022-11-03T11:20:41.738Z,2.45
2022-11-03T11:23:53.347Z,2.95
2022-11-03T11:29:45.407Z,2.75
2022-11-03T11:32:49.577Z,2.28
2022-11-03T11:36:06.368Z,3.22
2022-11-03T11:39:11.196Z,2.22
2022-11-03T11:42:13.945Z,3.10
2022-11-03T11:45:07.192Z,2.80
2022-11-03T11:47:51.382Z,3.50
2022-11-03T11:50:41.049Z,3.10
2022-11-03T11:53:20.718Z,2.80
2022-11-03T11:55:56.708Z,3.15
2022-11-03T11:58:31.933Z,3.65
2022-11-03T12:01:04.357Z,3.45
2022-11-03T12:03:39.582Z,2.90
2022-11-03T12:06:14.055Z,4.05
2022-11-03T12:08:45.335Z,3.67
2022-11-03T12:11:15.789Z,4.07
2022-11-03T12:13:48.923Z,3.17
2022-11-03T12:16:33.395Z,3.08
2022-11-03T12:19:49.185Z,4.53
2022-11-03T12:22:44.765Z,3.70
2022-11-03T12:25:36.606Z,4.30
2022-11-03T12:28:07.346Z,3.47
2022-11-03T12:30:40.045Z,3.33
2022-11-03T12:33:11.215Z,3.40
2022-11-03T12:35:41.344Z,3.22
2022-11-03T12:38:13.299Z,2.63
2022-11-03T12:40:43.307Z,2.92
2022-11-03T12:43:14.077Z,3.70
2022-11-03T12:45:44.363Z,3.50
2022-11-03T12:48:15.097Z,3.00
2022-11-03T12:50:45.145Z,2.92
2022-11-03T12:53:17.048Z,3.22
2022-11-03T12:55:47.420Z,2.88
2022-11-03T12:58:18.386Z,3.33
2022-11-03T13:00:53.846Z,2.47
2022-11-03T13:03:25.676Z,2.30
2022-11-03T13:05:55.944Z,3.13
2022-11-03T13:08:28.254Z,2.25
2022-11-03T13:10:59.178Z,2.35
2022-11-03T13:13:29.527Z,2.60
2022-11-03T13:15:59.810Z,3.10
2022-11-03T13:18:30.877Z,2.97
2022-11-03T13:21:01.922Z,2.65
2022-11-03T13:26:03.393Z,2.70
2022-11-03T13:28:33.850Z,2.77
2022-11-03T13:31:03.989Z,3.67
2022-11-03T13:33:34.497Z,3.10
2022-11-03T13:36:05.533Z,3.05
2022-11-03T13:41:09.170Z,3.97
2022-11-03T13:43:40.264Z,3.03
2022-11-03T13:46:10.415Z,3.03
2022-11-03T13:51:31.673Z,3.08
2022-11-03T13:59:44.166Z,4.25
2022-11-03T14:05:07.110Z,3.13
2022-11-03T14:07:38.712Z,3.10
2022-11-03T14:10:11.577Z,3.20
2022-11-03T14:12:40.668Z,3.38
2022-11-03T14:15:13.429Z,2.72
2022-11-03T14:17:43.793Z,3.20
2022-11-03T14:20:15.274Z,3.10
2022-11-03T14:22:45.435Z,3.38
2022-11-03T14:25:21.231Z,3.10
2022-11-03T14:27:51.422Z,3.08
2022-11-03T14:30:22.275Z,3.80
2022-11-03T14:32:55.463Z,3.23
2022-11-03T14:35:29.618Z,5.75
2022-11-03T14:37:59.719Z,3.65
2022-11-03T14:40:49.449Z,5.30
2022-11-03T14:43:19.419Z,4.72
2022-11-03T14:45:49.866Z,3.95
2022-11-03T14:48:19.839Z,4.53
2022-11-03T14:50:50.320Z,4.53
2022-11-03T14:53:21.119Z,5.82
2022-11-03T14:55:53.065Z,6.68
2022-11-03T15:00:53.495Z,6.95
2022-11-03T15:03:23.757Z,7.72
2022-11-03T15:05:55.809Z,7.22
2022-11-03T15:10:58.337Z,10.30
2022-11-03T15:13:28.527Z,9.88
2022-11-03T15:15:59.189Z,8.33
2022-11-03T15:18:29.420Z,8.68
2022-11-03T15:20:59.748Z,7.57
2022-11-03T15:28:53.218Z,7.30
2022-11-03T15:31:25.992Z,6.72
2022-11-03T15:33:55.994Z,6.07
2022-11-03T15:36:28.050Z,6.70
2022-11-03T15:38:58.820Z,6.93
2022-11-03T15:41:30.610Z,6.28
2022-11-03T15:44:00.878Z,7.30
2022-11-03T15:46:32.100Z,6.03
2022-11-03T15:49:02.452Z,6.25
2022-11-03T15:51:32.799Z,5.80
2022-11-03T15:54:04.360Z,8.27
2022-11-03T15:56:39.334Z,5.78
2022-11-03T15:59:14.849Z,5.60
2022-11-03T16:02:03.458Z,7.78
2022-11-03T16:04:48.502Z,6.10
2022-11-03T16:07:20.102Z,7.45
2022-11-03T16:09:50.951Z,8.20
2022-11-03T16:12:24.500Z,7.72
2022-11-03T16:14:55.611Z,6.63
2022-11-03T16:17:26.791Z,9.10
2022-11-03T16:19:56.718Z,7.63
2022-11-03T16:22:26.983Z,10.50
2022-11-03T16:24:57.119Z,8.50
2022-11-03T16:27:29.440Z,8.45
2022-11-03T16:29:59.896Z,8.45
2022-11-03T16:32:30.633Z,9.32
2022-11-03T16:35:00.960Z,8.13
2022-11-03T16:37:31.429Z,11.20
2022-11-03T16:40:02.018Z,8.55
2022-11-03T16:42:38.710Z,11.10
2022-11-03T16:45:18.039Z,10.88
2022-11-03T16:47:52.272Z,12.10
2022-11-03T16:50:23.800Z,10.43
2022-11-03T16:52:57.783Z,11.52
2022-11-03T16:55:28.864Z,11.60
2022-11-03T16:58:02.860Z,12.45
2022-11-03T17:00:34.496Z,12.32
2022-11-03T17:03:06.249Z,12.90
2022-11-03T17:05:36.858Z,15.07
2022-11-03T17:08:25.642Z,18.25
2022-11-03T17:10:59.823Z,17.75
2022-11-03T17:13:33.247Z,25.30
2022-11-03T17:16:04.523Z,35.17
2022-11-03T17:18:37.039Z,44.00
2022-11-03T17:21:08.061Z,59.92
2022-11-03T17:23:40.836Z,50.50
2022-11-03T17:26:12.363Z,42.75
2022-11-03T17:28:44.697Z,37.60
2022-11-03T17:31:14.918Z,37.67
2022-11-03T17:33:45.397Z,58.10
2022-11-03T17:36:15.419Z,56.08
2022-11-03T17:38:45.949Z,58.72
2022-11-03T17:41:18.898Z,54.00
2022-11-03T17:43:52.769Z,50.33
2022-11-03T17:46:23.197Z,47.65
2022-11-03T17:48:53.680Z,45.38
2022-11-03T17:51:23.856Z,55.25
2022-11-03T17:53:54.226Z,53.92
2022-11-03T17:56:30.784Z,52.88
2022-11-03T17:59:03.633Z,54.05
2022-11-03T18:01:33.765Z,50.80
2022-11-03T18:04:04.721Z,58.00
2022-11-03T18:06:34.832Z,58.17
2022-11-03T18:09:05.771Z,57.70
2022-11-03T18:11:55.463Z,61.97
2022-11-03T18:14:30.296Z,56.58
2022-11-03T18:17:00.679Z,56.25
2022-11-03T18:19:32.621Z,56.15
2022-11-03T18:24:33.403Z,63.00
2022-11-03T18:27:03.531Z,64.25
2022-11-03T18:29:35.491Z,66.43
2022-11-03T18:32:05.640Z,63.58
2022-11-03T18:34:37.063Z,78.75
2022-11-03T18:37:07.299Z,73.53
2022-11-03T18:39:38.390Z,71.57
2022-11-03T18:42:15.602Z,73.57
2022-11-03T18:44:49.440Z,73.03
2022-11-03T18:47:19.541Z,75.00
2022-11-03T18:49:50.087Z,74.18
2022-11-03T18:52:20.844Z,72.90
2022-11-03T18:54:52.541Z,78.32
2022-11-03T18:57:26.720Z,74.82
2022-11-03T18:59:58.693Z,75.32
2022-11-03T19:05:01.358Z,78.18
2022-11-03T19:07:40.364Z,81.60
2022-11-03T19:10:16.599Z,80.85
2022-11-03T19:12:48.109Z,96.72
2022-11-03T19:15:26.596Z,92.15
2022-11-03T19:18:01.247Z,91.78
2022-11-03T19:20:36.091Z,94.78
2022-11-03T19:23:07.877Z,90.53
2022-11-03T19:25:46.028Z,94.03
2022-11-03T19:28:22.809Z,92.93
2022-11-03T19:30:57.857Z,89.68
2022-11-03T19:33:31.207Z,91.75
2022-11-03T19:36:02.233Z,91.88
2022-11-03T19:38:32.800Z,88.10
2022-11-03T19:41:20.616Z,92.57
2022-11-03T19:43:50.821Z,86.90
2022-11-03T19:46:22.810Z,90.07
2022-11-03T19:48:53.052Z,82.53
2022-11-03T19:51:23.520Z,78.60
2022-11-03T19:53:53.979Z,77.75
2022-11-03T19:56:25.703Z,81.60
2022-11-03T19:58:55.741Z,83.07
2022-11-03T20:01:28.662Z,84.68
2022-11-03T20:03:58.775Z,82.63
2022-11-03T20:06:29.665Z,80.90
2022-11-03T20:08:59.768Z,91.40
2022-11-03T20:11:30.186Z,92.80
2022-11-03T20:14:00.269Z,98.30
2022-11-03T20:16:33.090Z,99.70
2022-11-03T20:19:03.650Z,91.38
2022-11-03T20:21:34.554Z,90.45
2022-11-03T20:24:06.161Z,93.90
2022-11-03T20:26:36.861Z,80.43
2022-11-03T20:29:13.122Z,77.25
2022-11-03T20:31:46.509Z,71.78
2022-11-03T20:34:17.301Z,68.85
2022-11-03T20:36:48.296Z,68.90
2022-11-03T20:39:20.652Z,65.38
2022-11-03T20:42:01.799Z,65.03
2022-11-03T20:44:38.176Z,65.70
2022-11-03T20:47:16.150Z,66.53
2022-11-03T20:49:46.243Z,66.00
2022-11-03T20:52:33.276Z,60.50
2022-11-03T20:55:18.733Z,60.83
2022-11-03T20:57:52.715Z,58.40
2022-11-03T21:00:25.540Z,55.22
2022-11-03T21:02:57.909Z,58.78
2022-11-03T21:05:29.832Z,53.83
2022-11-03T21:08:00.230Z,56.08
2022-11-03T21:10:30.371Z,58.17
2022-11-03T21:13:02.141Z,59.83
2022-11-03T21:16:18.376Z,58.63
2022-11-03T21:18:58.890Z,57.38
2022-11-03T21:21:28.880Z,56.35
2022-11-03T21:23:59.413Z,52.97
2022-11-03T21:26:30.761Z,54.70
2022-11-03T21:29:02.043Z,53.83
2022-11-03T21:31:32.214Z,51.22
2022-11-03T21:34:05.306Z,50.70
2022-11-03T21:36:35.391Z,53.63
2022-11-03T21:39:05.771Z,53.75
2022-11-03T21:41:52.790Z,54.40
2022-11-03T21:44:24.822Z,52.38
2022-11-03T21:49:44.286Z,52.58
2022-11-03T21:52:14.999Z,58.45
2022-11-03T21:54:46.095Z,52.42
2022-11-03T21:57:16.726Z,44.93
2022-11-03T21:59:47.469Z,44.30
2022-11-03T22:02:17.730Z,51.60
2022-11-03T22:04:50.303Z,51.45
2022-11-03T22:07:20.332Z,52.63
2022-11-03T22:09:50.670Z,54.67
2022-11-03T22:12:20.773Z,57.20
2022-11-03T22:15:08.370Z,53.75
2022-11-03T22:17:38.413Z,53.28
2022-11-03T22:20:28.424Z,61.10
2022-11-03T22:23:18.564Z,60.17
2022-11-03T22:26:06.734Z,50.53
2022-11-03T22:28:36.694Z,43.53
2022-11-03T22:31:24.591Z,66.07
2022-11-03T22:34:12.796Z,66.20
2022-11-03T22:36:44.524Z,49.28
2022-11-03T22:39:32.813Z,39.80
2022-11-03T22:42:19.483Z,61.88
2022-11-03T22:45:05.862Z,56.15
2022-11-03T22:47:36.154Z,53.70
2022-11-03T22:50:06.533Z,67.47
2022-11-03T22:52:38.284Z,54.20
2022-11-03T22:55:07.695Z,53.90
2022-11-03T22:57:38.095Z,49.30
2022-11-03T23:00:08.953Z,40.95
2022-11-03T23:02:39.261Z,44.80
2022-11-03T23:05:09.984Z,38.30
2022-11-03T23:07:41.920Z,41.03
2022-11-03T23:10:12.444Z,38.38
2022-11-03T23:12:42.689Z,36.97
2022-11-03T23:15:30.033Z,45.40
2022-11-03T23:18:17.932Z,46.03
2022-11-03T23:21:05.483Z,45.67
2022-11-03T23:23:55.595Z,46.67
2022-11-03T23:26:27.564Z,58.67
2022-11-03T23:28:58.003Z,55.65
2022-11-03T23:31:28.039Z,51.20
2022-11-03T23:34:00.388Z,48.53
2022-11-03T23:36:31.123Z,43.50
2022-11-03T23:39:03.713Z,38.95
2022-11-03T23:41:34.015Z,38.35
2022-11-03T23:44:04.510Z,38.40
2022-11-03T23:46:51.723Z,35.60
2022-11-03T23:49:22.015Z,35.85
2022-11-03T23:51:52.068Z,32.97
2022-11-03T23:54:23.853Z,38.22
2022-11-03T23:57:11.485Z,39.05
2022-11-03T23:59:41.877Z,43.60
